Beatty, Nevada
Current Conditions -  °F | °C
As of 11:52 PM on Wednesday 26 Nov 2014 (Local Time) from KDRA Reporting Station
Clear Clear  
Wind Chill: 46°   Ceiling: Unl
Heat Index: 46°   Visibility: 10mi
Dew Point: 14°   Wind: 3mph
Humidity: 28%   Direction: 170°S
Pressure: 30.33"   Gusts: NA
Location:  36.91°N, 116.76°W
Report Text: KDRA 270752Z AUTO 17003KT 10SM CLR 08/M10 A3033 RMK AO2 SLP246 T00781100 402280000 $
Loading
Personal Weather Stations






























Interactive Weather Map New forecast layout! Learn more

10-Day Weather Forecast

Advertisements
Track Severe Weather on mobile